sensor_id;sensor_type;location;lat;lon;timestamp;pressure;altitude;pressure_sealevel;temperature;humidity
65329;BME280;51941;52.210;5.158;2023-01-27T00:00:35;102544.53;;;5.58;78.73
65329;BME280;51941;52.210;5.158;2023-01-27T00:03:02;102578.41;;;5.43;78.61
65329;BME280;51941;52.210;5.158;2023-01-27T00:05:30;102542.31;;;5.45;78.79
65329;BME280;51941;52.210;5.158;2023-01-27T00:07:57;102534.56;;;5.43;78.58
65329;BME280;51941;52.210;5.158;2023-01-27T00:10:24;102542.97;;;5.47;78.48
65329;BME280;51941;52.210;5.158;2023-01-27T00:12:51;102538.91;;;5.53;78.51
65329;BME280;51941;52.210;5.158;2023-01-27T00:15:35;102540.41;;;5.55;78.55
65329;BME280;51941;52.210;5.158;2023-01-27T00:18:02;102540.69;;;5.52;78.62
65329;BME280;51941;52.210;5.158;2023-01-27T00:20:30;102535.97;;;5.56;78.55
65329;BME280;51941;52.210;5.158;2023-01-27T00:23:16;102541.03;;;5.49;79.03
65329;BME280;51941;52.210;5.158;2023-01-27T00:26:03;102535.44;;;5.52;78.66
65329;BME280;51941;52.210;5.158;2023-01-27T00:28:31;102534.94;;;5.49;78.69
65329;BME280;51941;52.210;5.158;2023-01-27T00:30:58;102528.19;;;5.46;79.06
65329;BME280;51941;52.210;5.158;2023-01-27T00:33:27;102536.22;;;5.45;79.12
65329;BME280;51941;52.210;5.158;2023-01-27T00:35:58;102539.19;;;5.41;79.09
65329;BME280;51941;52.210;5.158;2023-01-27T00:38:26;102532.09;;;5.42;79.30
65329;BME280;51941;52.210;5.158;2023-01-27T00:40:53;102535.88;;;5.39;78.96
65329;BME280;51941;52.210;5.158;2023-01-27T00:43:37;102538.50;;;5.39;79.17
65329;BME280;51941;52.210;5.158;2023-01-27T00:46:04;102542.31;;;5.45;79.07
65329;BME280;51941;52.210;5.158;2023-01-27T00:48:31;102543.50;;;5.51;78.97
65329;BME280;51941;52.210;5.158;2023-01-27T00:50:59;102491.41;;;5.12;78.69
65329;BME280;51941;52.210;5.158;2023-01-27T00:53:26;102547.56;;;5.45;78.93
65329;BME280;51941;52.210;5.158;2023-01-27T00:55:53;102542.94;;;5.39;79.13
65329;BME280;51941;52.210;5.158;2023-01-27T00:58:20;102541.97;;;5.40;79.21
65329;BME280;51941;52.210;5.158;2023-01-27T01:00:48;102529.31;;;5.18;79.07
65329;BME280;51941;52.210;5.158;2023-01-27T01:03:15;102544.34;;;5.33;79.17
65329;BME280;51941;52.210;5.158;2023-01-27T01:05:42;102544.00;;;5.28;79.15
65329;BME280;51941;52.210;5.158;2023-01-27T01:08:10;102544.00;;;5.28;78.97
65329;BME280;51941;52.210;5.158;2023-01-27T01:10:37;102533.78;;;5.25;79.03
65329;BME280;51941;52.210;5.158;2023-01-27T01:13:04;102550.81;;;5.39;78.86
65329;BME280;51941;52.210;5.158;2023-01-27T01:15:34;102545.13;;;5.26;78.92
65329;BME280;51941;52.210;5.158;2023-01-27T01:18:01;102556.56;;;5.42;78.69
65329;BME280;51941;52.210;5.158;2023-01-27T01:20:28;102551.94;;;5.36;78.86
65329;BME280;51941;52.210;5.158;2023-01-27T01:22:55;102557.66;;;5.32;78.93
65329;BME280;51941;52.210;5.158;2023-01-27T01:25:24;102556.97;;;5.30;79.04
65329;BME280;51941;52.210;5.158;2023-01-27T01:27:51;102525.66;;;5.11;78.86
65329;BME280;51941;52.210;5.158;2023-01-27T01:30:18;102524.53;;;5.13;78.76
65329;BME280;51941;52.210;5.158;2023-01-27T01:32:45;102532.41;;;5.13;78.91
65329;BME280;51941;52.210;5.158;2023-01-27T01:35:12;102492.31;;;4.85;78.96
65329;BME280;51941;52.210;5.158;2023-01-27T01:37:39;102555.63;;;5.26;78.85
65329;BME280;51941;52.210;5.158;2023-01-27T01:40:07;102571.38;;;5.26;78.83
65329;BME280;51941;52.210;5.158;2023-01-27T01:42:55;102567.09;;;5.25;79.03
65329;BME280;51941;52.210;5.158;2023-01-27T01:45:54;102568.47;;;5.29;78.71
65329;BME280;51941;52.210;5.158;2023-01-27T01:48:29;102573.19;;;5.25;78.72
65329;BME280;51941;52.210;5.158;2023-01-27T01:51:00;102574.78;;;5.18;78.84
65329;BME280;51941;52.210;5.158;2023-01-27T01:53:32;102558.19;;;5.18;78.67
65329;BME280;51941;52.210;5.158;2023-01-27T01:56:06;102542.53;;;5.08;78.29
65329;BME280;51941;52.210;5.158;2023-01-27T01:58:38;102569.72;;;5.25;78.30
65329;BME280;51941;52.210;5.158;2023-01-27T02:01:06;102572.81;;;5.20;78.35
65329;BME280;51941;52.210;5.158;2023-01-27T02:03:34;102554.25;;;5.14;78.23
65329;BME280;51941;52.210;5.158;2023-01-27T02:06:05;102563.78;;;5.15;78.30
65329;BME280;51941;52.210;5.158;2023-01-27T02:08:34;102539.41;;;5.04;78.18
65329;BME280;51941;52.210;5.158;2023-01-27T02:11:05;102565.38;;;5.16;78.22
65329;BME280;51941;52.210;5.158;2023-01-27T02:13:32;102572.63;;;5.14;78.30
65329;BME280;51941;52.210;5.158;2023-01-27T02:16:00;102579.19;;;5.18;78.13
65329;BME280;51941;52.210;5.158;2023-01-27T02:18:29;102573.75;;;5.11;77.92
65329;BME280;51941;52.210;5.158;2023-01-27T02:20:56;102587.41;;;5.15;78.04
65329;BME280;51941;52.210;5.158;2023-01-27T02:26:28;102559.81;;;4.93;78.13
65329;BME280;51941;52.210;5.158;2023-01-27T02:28:57;102589.41;;;5.03;78.39
65329;BME280;51941;52.210;5.158;2023-01-27T02:31:25;102582.31;;;4.95;78.55
65329;BME280;51941;52.210;5.158;2023-01-27T02:33:53;102502.00;;;4.49;78.64
65329;BME280;51941;52.210;5.158;2023-01-27T02:36:25;102527.13;;;4.70;78.65
65329;BME280;51941;52.210;5.158;2023-01-27T02:38:54;102580.19;;;4.99;78.88
65329;BME280;51941;52.210;5.158;2023-01-27T02:41:25;102549.34;;;4.83;78.65
65329;BME280;51941;52.210;5.158;2023-01-27T02:43:55;102588.31;;;4.88;79.01
65329;BME280;51941;52.210;5.158;2023-01-27T02:46:22;102602.50;;;4.85;79.40
65329;BME280;51941;52.210;5.158;2023-01-27T02:48:49;102600.31;;;4.81;79.65
65329;BME280;51941;52.210;5.158;2023-01-27T02:51:16;102601.59;;;4.77;79.86
65329;BME280;51941;52.210;5.158;2023-01-27T02:53:44;102594.50;;;4.69;79.85
65329;BME280;51941;52.210;5.158;2023-01-27T02:56:11;102601.13;;;4.63;80.12
65329;BME280;51941;52.210;5.158;2023-01-27T02:58:38;102500.44;;;3.93;80.29
65329;BME280;51941;52.210;5.158;2023-01-27T03:01:11;102608.03;;;4.64;80.16
65329;BME280;51941;52.210;5.158;2023-01-27T03:03:38;102597.78;;;4.53;80.22
65329;BME280;51941;52.210;5.158;2023-01-27T03:06:08;102615.81;;;4.56;80.20
65329;BME280;51941;52.210;5.158;2023-01-27T03:08:35;102615.88;;;4.47;80.29
65329;BME280;51941;52.210;5.158;2023-01-27T03:11:04;102617.28;;;4.41;79.90
65329;BME280;51941;52.210;5.158;2023-01-27T03:13:31;102590.50;;;4.20;80.03
65329;BME280;51941;52.210;5.158;2023-01-27T03:15:58;102607.81;;;4.30;79.79
65329;BME280;51941;52.210;5.158;2023-01-27T03:18:46;102624.25;;;4.33;79.71
65329;BME280;51941;52.210;5.158;2023-01-27T03:21:15;102626.50;;;4.27;80.09
65329;BME280;51941;52.210;5.158;2023-01-27T03:23:42;102600.16;;;4.19;79.90
65329;BME280;51941;52.210;5.158;2023-01-27T03:26:11;102623.13;;;4.35;79.86
65329;BME280;51941;52.210;5.158;2023-01-27T03:28:42;102623.56;;;4.30;80.11
65329;BME280;51941;52.210;5.158;2023-01-27T03:31:29;102614.13;;;4.38;80.07
65329;BME280;51941;52.210;5.158;2023-01-27T03:34:02;102613.31;;;4.37;79.86
65329;BME280;51941;52.210;5.158;2023-01-27T03:36:32;102594.91;;;4.19;79.99
65329;BME280;51941;52.210;5.158;2023-01-27T03:39:16;102646.19;;;4.32;79.85
65329;BME280;51941;52.210;5.158;2023-01-27T03:42:01;102628.69;;;4.22;79.93
65329;BME280;51941;52.210;5.158;2023-01-27T03:44:46;102628.31;;;4.17;79.62
65329;BME280;51941;52.210;5.158;2023-01-27T03:47:31;102633.41;;;4.19;79.55
65329;BME280;51941;52.210;5.158;2023-01-27T03:49:59;102610.00;;;4.08;79.58
65329;BME280;51941;52.210;5.158;2023-01-27T03:52:26;102632.97;;;4.23;79.13
65329;BME280;51941;52.210;5.158;2023-01-27T03:54:52;102639.03;;;4.24;79.19
65329;BME280;51941;52.210;5.158;2023-01-27T03:57:19;102651.56;;;4.30;79.05
65329;BME280;51941;52.210;5.158;2023-01-27T03:59:46;102639.19;;;4.22;79.20
65329;BME280;51941;52.210;5.158;2023-01-27T04:02:13;102642.50;;;4.24;79.26
65329;BME280;51941;52.210;5.158;2023-01-27T04:04:58;102645.34;;;4.31;78.96
65329;BME280;51941;52.210;5.158;2023-01-27T04:07:42;102647.88;;;4.23;78.76
65329;BME280;51941;52.210;5.158;2023-01-27T04:10:10;102646.19;;;4.32;78.72
65329;BME280;51941;52.210;5.158;2023-01-27T04:12:36;102648.94;;;4.30;78.44
65329;BME280;51941;52.210;5.158;2023-01-27T04:15:03;102578.38;;;3.91;78.23
65329;BME280;51941;52.210;5.158;2023-01-27T04:17:30;102648.81;;;4.32;78.22
65329;BME280;51941;52.210;5.158;2023-01-27T04:20:05;102609.59;;;4.03;77.86
65329;BME280;51941;52.210;5.158;2023-01-27T04:22:32;102657.22;;;4.35;77.76
65329;BME280;51941;52.210;5.158;2023-01-27T04:24:59;102650.84;;;4.38;77.54
65329;BME280;51941;52.210;5.158;2023-01-27T04:27:25;102661.72;;;4.43;77.33
65329;BME280;51941;52.210;5.158;2023-01-27T04:29:52;102625.25;;;4.22;77.08
65329;BME280;51941;52.210;5.158;2023-01-27T04:32:19;102655.66;;;4.42;77.03
65329;BME280;51941;52.210;5.158;2023-01-27T04:34:46;102668.19;;;4.48;76.82
65329;BME280;51941;52.210;5.158;2023-01-27T04:37:14;102661.81;;;4.51;76.60
65329;BME280;51941;52.210;5.158;2023-01-27T04:39:40;102658.50;;;4.49;76.56
65329;BME280;51941;52.210;5.158;2023-01-27T04:42:09;102666.94;;;4.52;76.75
65329;BME280;51941;52.210;5.158;2023-01-27T04:44:36;102666.09;;;4.52;76.63
65329;BME280;51941;52.210;5.158;2023-01-27T04:47:03;102638.56;;;4.38;76.25
65329;BME280;51941;52.210;5.158;2023-01-27T04:49:30;102658.59;;;4.57;76.00
65329;BME280;51941;52.210;5.158;2023-01-27T04:51:57;102660.94;;;4.60;75.67
65329;BME280;51941;52.210;5.158;2023-01-27T04:54:25;102664.00;;;4.55;75.51
65329;BME280;51941;52.210;5.158;2023-01-27T04:56:56;102667.16;;;4.59;75.44
65329;BME280;51941;52.210;5.158;2023-01-27T04:59:23;102670.22;;;4.54;75.29
65329;BME280;51941;52.210;5.158;2023-01-27T05:01:50;102640.75;;;4.43;75.39
65329;BME280;51941;52.210;5.158;2023-01-27T05:04:17;102625.59;;;4.37;75.07
65329;BME280;51941;52.210;5.158;2023-01-27T05:06:44;102662.59;;;4.61;75.01
65329;BME280;51941;52.210;5.158;2023-01-27T05:09:10;102667.78;;;4.71;74.90
65329;BME280;51941;52.210;5.158;2023-01-27T05:11:39;102665.75;;;4.64;74.66
65329;BME280;51941;52.210;5.158;2023-01-27T05:14:05;102652.44;;;4.48;74.65
65329;BME280;51941;52.210;5.158;2023-01-27T05:16:32;102674.44;;;4.65;74.76
65329;BME280;51941;52.210;5.158;2023-01-27T05:18:59;102678.56;;;4.67;74.45
65329;BME280;51941;52.210;5.158;2023-01-27T05:21:26;102690.75;;;4.59;74.25
65329;BME280;51941;52.210;5.158;2023-01-27T05:23:53;102691.00;;;4.65;74.07
65329;BME280;51941;52.210;5.158;2023-01-27T05:26:22;102695.19;;;4.58;73.86
65329;BME280;51941;52.210;5.158;2023-01-27T05:28:51;102678.63;;;4.58;73.43
65329;BME280;51941;52.210;5.158;2023-01-27T05:31:20;102676.53;;;4.61;73.21
65329;BME280;51941;52.210;5.158;2023-01-27T05:33:48;102683.00;;;4.67;73.27
65329;BME280;51941;52.210;5.158;2023-01-27T05:36:17;102691.81;;;4.66;73.16
65329;BME280;51941;52.210;5.158;2023-01-27T05:38:44;102698.03;;;4.65;73.05
65329;BME280;51941;52.210;5.158;2023-01-27T05:41:12;102701.81;;;4.62;73.26
65329;BME280;51941;52.210;5.158;2023-01-27T05:43:41;102642.44;;;4.34;72.99
65329;BME280;51941;52.210;5.158;2023-01-27T05:46:11;102706.72;;;4.65;72.78
65329;BME280;51941;52.210;5.158;2023-01-27T05:48:39;102702.09;;;4.59;72.63
65329;BME280;51941;52.210;5.158;2023-01-27T05:51:07;102715.72;;;4.63;72.39
65329;BME280;51941;52.210;5.158;2023-01-27T05:53:34;102712.44;;;4.61;72.37
65329;BME280;51941;52.210;5.158;2023-01-27T05:56:01;102696.06;;;4.49;72.18
65329;BME280;51941;52.210;5.158;2023-01-27T05:58:28;102703.66;;;4.52;72.07
65329;BME280;51941;52.210;5.158;2023-01-27T06:00:55;102669.22;;;4.28;71.93
65329;BME280;51941;52.210;5.158;2023-01-27T06:03:24;102713.69;;;4.57;71.96
65329;BME280;51941;52.210;5.158;2023-01-27T06:05:52;102682.75;;;4.33;71.71
65329;BME280;51941;52.210;5.158;2023-01-27T06:08:20;102718.94;;;4.57;71.40
65329;BME280;51941;52.210;5.158;2023-01-27T06:10:47;102721.72;;;4.46;70.77
65329;BME280;51941;52.210;5.158;2023-01-27T06:13:14;102712.06;;;4.46;70.33
65329;BME280;51941;52.210;5.158;2023-01-27T06:15:42;102727.69;;;4.38;69.95
65329;BME280;51941;52.210;5.158;2023-01-27T06:18:09;102730.03;;;4.41;69.88
65329;BME280;51941;52.210;5.158;2023-01-27T06:20:37;102699.72;;;4.29;69.83
65329;BME280;51941;52.210;5.158;2023-01-27T06:23:04;102689.97;;;4.12;69.60
65329;BME280;51941;52.210;5.158;2023-01-27T06:25:35;102728.94;;;4.44;69.51
65329;BME280;51941;52.210;5.158;2023-01-27T06:28:02;102727.41;;;4.41;69.68
65329;BME280;51941;52.210;5.158;2023-01-27T06:30:29;102736.50;;;4.47;69.69
65329;BME280;51941;52.210;5.158;2023-01-27T06:32:56;102714.78;;;4.27;70.12
65329;BME280;51941;52.210;5.158;2023-01-27T06:35:22;102730.88;;;4.42;70.07
65329;BME280;51941;52.210;5.158;2023-01-27T06:37:50;102733.63;;;4.40;70.15
65329;BME280;51941;52.210;5.158;2023-01-27T06:40:17;102741.72;;;4.47;70.15
65329;BME280;51941;52.210;5.158;2023-01-27T06:42:44;102743.84;;;4.43;70.21
65329;BME280;51941;52.210;5.158;2023-01-27T06:45:11;102735.88;;;4.35;70.18
65329;BME280;51941;52.210;5.158;2023-01-27T06:47:39;102737.94;;;4.32;70.25
65329;BME280;51941;52.210;5.158;2023-01-27T06:50:06;102750.63;;;4.36;70.10
65329;BME280;51941;52.210;5.158;2023-01-27T06:52:33;102742.78;;;4.26;70.14
65329;BME280;51941;52.210;5.158;2023-01-27T06:55:02;102734.63;;;4.29;69.98
65329;BME280;51941;52.210;5.158;2023-01-27T06:57:29;102721.41;;;4.21;69.81
65329;BME280;51941;52.210;5.158;2023-01-27T06:59:56;102734.63;;;4.29;69.88
65329;BME280;51941;52.210;5.158;2023-01-27T07:02:22;102737.97;;;4.22;69.73
65329;BME280;51941;52.210;5.158;2023-01-27T07:04:49;102734.94;;;4.26;69.70
65329;BME280;51941;52.210;5.158;2023-01-27T07:07:16;102741.13;;;4.25;69.74
65329;BME280;51941;52.210;5.158;2023-01-27T07:09:43;102730.50;;;4.27;69.94
65329;BME280;51941;52.210;5.158;2023-01-27T07:12:11;102732.00;;;4.29;69.96
65329;BME280;51941;52.210;5.158;2023-01-27T07:14:38;102731.72;;;4.33;70.08
65329;BME280;51941;52.210;5.158;2023-01-27T07:17:04;102732.28;;;4.36;70.08
65329;BME280;51941;52.210;5.158;2023-01-27T07:19:31;102737.66;;;4.35;69.94
65329;BME280;51941;52.210;5.158;2023-01-27T07:21:58;102735.88;;;4.35;70.04
65329;BME280;51941;52.210;5.158;2023-01-27T07:24:25;102689.19;;;4.02;69.94
65329;BME280;51941;52.210;5.158;2023-01-27T07:26:52;102750.91;;;4.33;70.32
65329;BME280;51941;52.210;5.158;2023-01-27T07:29:20;102758.78;;;4.33;70.50
65329;BME280;51941;52.210;5.158;2023-01-27T07:31:50;102741.03;;;4.17;70.34
65329;BME280;51941;52.210;5.158;2023-01-27T07:34:17;102767.03;;;4.28;70.36
65329;BME280;51941;52.210;5.158;2023-01-27T07:36:43;102770.09;;;4.34;70.37
65329;BME280;51941;52.210;5.158;2023-01-27T07:39:10;102776.84;;;4.36;70.52
65329;BME280;51941;52.210;5.158;2023-01-27T07:41:37;102776.19;;;4.24;70.41
65329;BME280;51941;52.210;5.158;2023-01-27T07:44:04;102777.41;;;4.30;70.50
65329;BME280;51941;52.210;5.158;2023-01-27T07:46:33;102746.69;;;4.03;70.27
65329;BME280;51941;52.210;5.158;2023-01-27T07:49:00;102778.09;;;4.22;70.21
65329;BME280;51941;52.210;5.158;2023-01-27T07:51:27;102780.59;;;4.14;69.98
65329;BME280;51941;52.210;5.158;2023-01-27T07:53:54;102787.09;;;4.10;69.80
65329;BME280;51941;52.210;5.158;2023-01-27T07:56:20;102792.31;;;4.20;69.78
65329;BME280;51941;52.210;5.158;2023-01-27T07:58:47;102759.38;;;4.08;69.63
65329;BME280;51941;52.210;5.158;2023-01-27T08:01:14;102783.78;;;4.18;69.51
65329;BME280;51941;52.210;5.158;2023-01-27T08:03:42;102759.53;;;4.06;69.64
65329;BME280;51941;52.210;5.158;2023-01-27T08:06:11;102789.84;;;4.18;69.57
65329;BME280;51941;52.210;5.158;2023-01-27T08:08:38;102787.91;;;4.20;69.64
65329;BME280;51941;52.210;5.158;2023-01-27T08:11:06;102791.06;;;4.24;69.54
65329;BME280;51941;52.210;5.158;2023-01-27T08:13:34;102787.91;;;4.20;69.65
65329;BME280;51941;52.210;5.158;2023-01-27T08:16:02;102783.78;;;4.27;69.72
65329;BME280;51941;52.210;5.158;2023-01-27T08:18:33;102787.88;;;4.30;69.61
65329;BME280;51941;52.210;5.158;2023-01-27T08:21:04;102793.13;;;4.30;69.57
65329;BME280;51941;52.210;5.158;2023-01-27T08:23:32;102706.44;;;3.85;69.55
65329;BME280;51941;52.210;5.158;2023-01-27T08:26:01;102796.69;;;4.39;69.44
65329;BME280;51941;52.210;5.158;2023-01-27T08:28:29;102784.28;;;4.41;69.48
65329;BME280;51941;52.210;5.158;2023-01-27T08:31:02;102792.81;;;4.52;69.23
65329;BME280;51941;52.210;5.158;2023-01-27T08:33:29;102796.78;;;4.56;69.25
65329;BME280;51941;52.210;5.158;2023-01-27T08:36:02;102789.31;;;4.61;69.10
65329;BME280;51941;52.210;5.158;2023-01-27T08:38:30;102803.28;;;4.62;68.79
65329;BME280;51941;52.210;5.158;2023-01-27T08:41:02;102799.41;;;4.56;68.31
65329;BME280;51941;52.210;5.158;2023-01-27T08:43:29;102783.16;;;4.43;68.43
65329;BME280;51941;52.210;5.158;2023-01-27T08:45:55;102783.31;;;4.42;68.47
65329;BME280;51941;52.210;5.158;2023-01-27T08:48:24;102799.75;;;4.34;68.83
65329;BME280;51941;52.210;5.158;2023-01-27T08:50:51;102797.00;;;4.26;68.82
65329;BME280;51941;52.210;5.158;2023-01-27T08:53:20;102791.34;;;4.21;69.32
65329;BME280;51941;52.210;5.158;2023-01-27T08:55:47;102794.94;;;4.20;69.37
65329;BME280;51941;52.210;5.158;2023-01-27T08:58:13;102801.81;;;4.21;69.42
65329;BME280;51941;52.210;5.158;2023-01-27T09:00:40;102815.75;;;4.31;69.57
65329;BME280;51941;52.210;5.158;2023-01-27T09:03:07;102822.91;;;4.39;69.36
65329;BME280;51941;52.210;5.158;2023-01-27T09:05:35;102812.97;;;4.52;69.18
65329;BME280;51941;52.210;5.158;2023-01-27T09:08:02;102815.38;;;4.63;68.75
65329;BME280;51941;52.210;5.158;2023-01-27T09:10:30;102787.00;;;4.49;68.45
65329;BME280;51941;52.210;5.158;2023-01-27T09:12:57;102811.41;;;4.59;68.36
65329;BME280;51941;52.210;5.158;2023-01-27T09:15:24;102801.91;;;4.48;68.23
65329;BME280;51941;52.210;5.158;2023-01-27T09:17:51;102811.56;;;4.48;68.49
65329;BME280;51941;52.210;5.158;2023-01-27T09:20:17;102805.81;;;4.44;68.62
65329;BME280;51941;52.210;5.158;2023-01-27T09:22:45;102784.19;;;4.13;68.57
65329;BME280;51941;52.210;5.158;2023-01-27T09:25:13;102825.13;;;4.43;68.83
65329;BME280;51941;52.210;5.158;2023-01-27T09:27:42;102823.44;;;4.52;68.75
65329;BME280;51941;52.210;5.158;2023-01-27T09:30:10;102824.66;;;4.57;68.65
65329;BME280;51941;52.210;5.158;2023-01-27T09:32:38;102805.09;;;4.52;68.51
65329;BME280;51941;52.210;5.158;2023-01-27T09:35:05;102820.38;;;4.56;68.60
65329;BME280;51941;52.210;5.158;2023-01-27T09:37:33;102818.84;;;4.63;68.66
65329;BME280;51941;52.210;5.158;2023-01-27T09:40:09;102817.97;;;4.73;68.56
65329;BME280;51941;52.210;5.158;2023-01-27T09:42:53;102819.25;;;4.68;68.62
65329;BME280;51941;52.210;5.158;2023-01-27T09:45:38;102804.66;;;4.56;68.84
65329;BME280;51941;52.210;5.158;2023-01-27T09:48:22;102826.16;;;4.70;68.88
65329;BME280;51941;52.210;5.158;2023-01-27T09:50:56;102803.66;;;4.67;68.83
65329;BME280;51941;52.210;5.158;2023-01-27T09:54:00;102807.78;;;4.70;69.03
65329;BME280;51941;52.210;5.158;2023-01-27T09:56:43;102827.13;;;4.68;69.20
65329;BME280;51941;52.210;5.158;2023-01-27T09:59:31;102819.50;;;4.75;69.06
65329;BME280;51941;52.210;5.158;2023-01-27T10:02:13;102820.19;;;4.77;68.94
65329;BME280;51941;52.210;5.158;2023-01-27T10:07:51;102822.66;;;4.79;69.23
65329;BME280;51941;52.210;5.158;2023-01-27T10:10:36;102822.81;;;4.77;69.24
65329;BME280;51941;52.210;5.158;2023-01-27T10:13:27;102830.22;;;4.82;69.33
65329;BME280;51941;52.210;5.158;2023-01-27T10:16:10;102834.28;;;4.76;69.34
65329;BME280;51941;52.210;5.158;2023-01-27T10:19:00;102826.91;;;4.89;69.25
65329;BME280;51941;52.210;5.158;2023-01-27T10:21:40;102824.25;;;4.99;69.27
65329;BME280;51941;52.210;5.158;2023-01-27T10:24:16;102827.25;;;5.14;69.35
65329;BME280;51941;52.210;5.158;2023-01-27T10:26:49;102825.81;;;5.19;69.09
65329;BME280;51941;52.210;5.158;2023-01-27T10:29:22;102841.44;;;5.21;68.94
65329;BME280;51941;52.210;5.158;2023-01-27T10:31:55;102841.16;;;5.24;68.68
65329;BME280;51941;52.210;5.158;2023-01-27T10:34:26;102837.94;;;5.30;68.85
65329;BME280;51941;52.210;5.158;2023-01-27T10:37:09;102843.34;;;5.46;68.56
65329;BME280;51941;52.210;5.158;2023-01-27T10:39:41;102842.31;;;5.57;68.54
65329;BME280;51941;52.210;5.158;2023-01-27T10:42:21;102836.25;;;5.56;68.34
65329;BME280;51941;52.210;5.158;2023-01-27T10:45:00;102834.97;;;5.60;68.46
65329;BME280;51941;52.210;5.158;2023-01-27T10:47:39;102846.56;;;5.67;68.53
65329;BME280;51941;52.210;5.158;2023-01-27T10:50:12;102848.00;;;5.52;68.68
65329;BME280;51941;52.210;5.158;2023-01-27T10:52:43;102778.72;;;5.18;68.84
65329;BME280;51941;52.210;5.158;2023-01-27T10:55:16;102838.28;;;5.62;68.74
65329;BME280;51941;52.210;5.158;2023-01-27T10:57:51;102841.09;;;5.51;68.83
65329;BME280;51941;52.210;5.158;2023-01-27T11:00:28;102820.47;;;5.38;69.23
65329;BME280;51941;52.210;5.158;2023-01-27T11:03:04;102837.06;;;5.57;69.33
65329;BME280;51941;52.210;5.158;2023-01-27T11:05:35;102817.28;;;5.35;69.62
65329;BME280;51941;52.210;5.158;2023-01-27T11:08:06;102844.19;;;5.47;69.63
65329;BME280;51941;52.210;5.158;2023-01-27T11:10:40;102836.16;;;5.48;69.49
65329;BME280;51941;52.210;5.158;2023-01-27T11:13:30;102839.47;;;5.50;69.13
65329;BME280;51941;52.210;5.158;2023-01-27T11:15:59;102832.44;;;5.51;69.18
65329;BME280;51941;52.210;5.158;2023-01-27T11:18:29;102797.63;;;5.21;69.22
65329;BME280;51941;52.210;5.158;2023-01-27T11:21:01;102834.22;;;5.50;69.43
65329;BME280;51941;52.210;5.158;2023-01-27T11:23:30;102804.06;;;5.27;69.38
65329;BME280;51941;52.210;5.158;2023-01-27T11:26:03;102846.34;;;5.51;69.10
65329;BME280;51941;52.210;5.158;2023-01-27T11:28:37;102837.41;;;5.44;69.05
65329;BME280;51941;52.210;5.158;2023-01-27T11:31:14;102835.81;;;5.33;69.02
65329;BME280;51941;52.210;5.158;2023-01-27T11:33:53;102828.25;;;5.30;69.20
65329;BME280;51941;52.210;5.158;2023-01-27T11:36:23;102767.81;;;4.85;69.01
65329;BME280;51941;52.210;5.158;2023-01-27T11:38:51;102824.72;;;5.22;69.30
65329;BME280;51941;52.210;5.158;2023-01-27T11:41:18;102803.91;;;5.11;69.37
65329;BME280;51941;52.210;5.158;2023-01-27T11:43:45;102826.06;;;5.26;69.50
65329;BME280;51941;52.210;5.158;2023-01-27T11:46:17;102806.38;;;5.12;69.63
65329;BME280;51941;52.210;5.158;2023-01-27T11:48:51;102824.41;;;5.25;69.80
65329;BME280;51941;52.210;5.158;2023-01-27T11:51:22;102802.38;;;5.08;70.06
65329;BME280;51941;52.210;5.158;2023-01-27T11:53:55;102825.69;;;5.21;70.47
65329;BME280;51941;52.210;5.158;2023-01-27T11:56:27;102820.66;;;5.27;70.56
65329;BME280;51941;52.210;5.158;2023-01-27T11:58:59;102822.19;;;5.30;70.45
65329;BME280;51941;52.210;5.158;2023-01-27T12:01:37;102810.00;;;5.29;70.48
65329;BME280;51941;52.210;5.158;2023-01-27T12:04:12;102785.25;;;5.14;70.44
65329;BME280;51941;52.210;5.158;2023-01-27T12:06:46;102804.75;;;5.29;70.59
65329;BME280;51941;52.210;5.158;2023-01-27T12:09:32;102802.97;;;5.29;70.84
65329;BME280;51941;52.210;5.158;2023-01-27T12:12:21;102806.56;;;5.28;71.09
65329;BME280;51941;52.210;5.158;2023-01-27T12:14:50;102794.50;;;5.35;71.04
65329;BME280;51941;52.210;5.158;2023-01-27T12:17:24;102799.31;;;5.40;70.98
65329;BME280;51941;52.210;5.158;2023-01-27T12:19:56;102792.47;;;5.47;70.80
65329;BME280;51941;52.210;5.158;2023-01-27T12:22:27;102796.22;;;5.45;70.92
65329;BME280;51941;52.210;5.158;2023-01-27T12:24:57;102789.19;;;5.45;70.88
65329;BME280;51941;52.210;5.158;2023-01-27T12:27:27;102782.13;;;5.46;70.75
65329;BME280;51941;52.210;5.158;2023-01-27T12:29:57;102753.81;;;5.22;70.86
65329;BME280;51941;52.210;5.158;2023-01-27T12:32:28;102792.78;;;5.44;70.92
65329;BME280;51941;52.210;5.158;2023-01-27T12:35:01;102794.44;;;5.45;70.69
65329;BME280;51941;52.210;5.158;2023-01-27T12:37:30;102795.25;;;5.46;70.56
65329;BME280;51941;52.210;5.158;2023-01-27T12:39:59;102784.00;;;5.53;70.51
65329;BME280;51941;52.210;5.158;2023-01-27T12:42:38;102782.81;;;5.48;70.21
65329;BME280;51941;52.210;5.158;2023-01-27T12:45:23;102777.91;;;5.53;70.33
65329;BME280;51941;52.210;5.158;2023-01-27T12:47:56;102783.50;;;5.50;70.44
65329;BME280;51941;52.210;5.158;2023-01-27T12:50:27;102784.06;;;5.43;70.31
65329;BME280;51941;52.210;5.158;2023-01-27T12:53:03;102744.97;;;5.23;70.37
65329;BME280;51941;52.210;5.158;2023-01-27T12:55:32;102768.56;;;5.50;70.33
65329;BME280;51941;52.210;5.158;2023-01-27T12:57:59;102727.09;;;5.09;70.44
65329;BME280;51941;52.210;5.158;2023-01-27T13:00:27;102765.09;;;5.50;70.41
65329;BME280;51941;52.210;5.158;2023-01-27T13:03:02;102781.00;;;5.48;70.40
65329;BME280;51941;52.210;5.158;2023-01-27T13:05:37;102724.72;;;5.15;70.24
65329;BME280;51941;52.210;5.158;2023-01-27T13:08:05;102779.06;;;5.50;70.32
65329;BME280;51941;52.210;5.158;2023-01-27T13:10:38;102717.34;;;5.19;69.81
65329;BME280;51941;52.210;5.158;2023-01-27T13:13:15;102777.09;;;5.52;69.35
65329;BME280;51941;52.210;5.158;2023-01-27T13:15:50;102766.59;;;5.52;69.26
65329;BME280;51941;52.210;5.158;2023-01-27T13:18:19;102750.75;;;5.26;68.74
65329;BME280;51941;52.210;5.158;2023-01-27T13:20:50;102778.44;;;5.38;68.62
65329;BME280;51941;52.210;5.158;2023-01-27T13:23:21;102781.13;;;5.29;68.90